Portada
METAR-TAF:

METAR-TAF

Aeroports :

Hyderabad, Índia

latitud: 17-27N, longitud: 078-28E, altitud: 530 m

Observació

L'informe es va fer fa 2 hores i 8 minuts, a les 16:30 UTC
Vent 5 kt del Sud/Sud-Est
Temperatura 28°C
Humitat 66%
Pressió 1014 hPa
Visibilitat: 6000 m
Núvols disperses a una alçada de 2000 ft
Núvols disperses a una alçada de 10000 ft

METAR: VOHY 231630Z 16005KT 6000 SCT020 SCT100 28/21 Q1014 NOSIG

Hora: 00:08 (18:38 UTC)

Pronòstic

L'informe es va fer fa 7 hores i 38 minuts, a les 11:00 UTC
Pronòstic vàlid del 23 a les 12 UTC al 23 a les 21 UTC
Vent 6 kt del Est
Visibilitat: 6000 m
Núvols disperses a una alçada de 2000 ft
Temporalment
l' 23 a les 12 UTC al 23 a les 15 UTC
Escasses núvols a una alçada de 3000 ft, Cumulonimbus.

TAF: VOHY 231100Z 2312/2321 08006KT 6000 SCT020 TEMPO 2312/2315 FEW030CB

Observacions i pronòstics meteorològics de més de 4000 aeroports (METAR i TAF).

Les estacions disponibles són els punts grocs i vermells al mapa.

Posi el ratolí al punt desitjat per veure el nom de l'estació.

Feu clic per veure les observacions i els pronòstics meteorològics.

Per canviar el mapa: feu clic els botons verds amb una creu de color negre per apropar; al botó verd amb un guió per allunyar la imatge; o en les fletxes verdes per a mapes adjacents.


METAR-TAF: